Time,TemperatureF,DewpointF,PressureIn,WindDirection,WindDirectionDegrees,WindSpeedMPH,WindSpeedGustMPH,Humidity,HourlyPrecipIn,Conditions,Clouds,dailyrainin,SolarRadiationWatts/m^2,SoftwareType,DateUTC
2013-04-25 00:11:00,23.0,6.0,-100.00,WSW,244,8.0,13.0,47,0.00,,,0.00,0.000000,,2013-04-25 06:11:00,
2013-04-25 00:22:00,23.0,6.0,-100.00,WSW,244,8.0,13.0,47,0.00,,,0.00,0.000000,,2013-04-25 06:22:00,
2013-04-25 00:32:00,23.0,6.0,-100.00,WSW,244,8.0,13.0,47,0.00,,,0.00,0.000000,,2013-04-25 06:32:00,
2013-04-25 00:42:00,23.0,6.0,-100.00,WSW,244,8.0,13.0,47,0.00,,,0.00,0.000000,,2013-04-25 06:42:00,
2013-04-25 00:52:00,22.0,5.0,-100.00,WSW,246,6.0,14.0,48,0.00,,,0.00,0.000000,,2013-04-25 06:52:00,
2013-04-25 01:12:00,22.0,5.0,-100.00,WSW,246,6.0,14.0,48,0.00,,,0.00,0.000000,,2013-04-25 07:12:00,
2013-04-25 01:22:00,22.0,5.0,-100.00,WSW,246,6.0,14.0,48,0.00,,,0.00,0.000000,,2013-04-25 07:22:00,
2013-04-25 01:32:00,22.0,5.0,-100.00,WSW,246,6.0,14.0,48,0.00,,,0.00,0.000000,,2013-04-25 07:32:00,
2013-04-25 01:42:00,22.0,5.0,-100.00,WSW,246,6.0,14.0,48,0.00,,,0.00,0.000000,,2013-04-25 07:42:00,
2013-04-25 02:21:00,23.0,4.0,-100.00,SW,233,6.0,16.0,43,0.00,,,0.00,0.000000,,2013-04-25 08:21:00,
2013-04-25 02:31:00,23.0,4.0,-100.00,SW,233,6.0,16.0,43,0.00,,,0.00,0.000000,,2013-04-25 08:31:00,
2013-04-25 02:42:00,23.0,4.0,-100.00,SW,233,6.0,16.0,43,0.00,,,0.00,0.000000,,2013-04-25 08:42:00,
2013-04-25 02:51:00,23.0,4.0,-100.00,SW,233,6.0,16.0,43,0.00,,,0.00,0.000000,,2013-04-25 08:51:00,
2013-04-25 02:52:00,21.0,2.0,-100.00,WSW,247,5.0,11.0,42,0.00,,,0.00,0.000000,,2013-04-25 08:52:00,
2013-04-25 03:21:00,21.0,2.0,-100.00,WSW,247,5.0,11.0,42,0.00,,,0.00,0.000000,,2013-04-25 09:21:00,
2013-04-25 03:33:00,21.0,2.0,-100.00,WSW,247,5.0,11.0,42,0.00,,,0.00,0.000000,,2013-04-25 09:33:00,
2013-04-25 03:42:00,21.0,2.0,-100.00,WSW,247,5.0,11.0,42,0.00,,,0.00,0.000000,,2013-04-25 09:42:00,
2013-04-25 03:52:00,21.0,4.0,-100.00,SW,224,6.0,16.0,47,0.00,,,0.00,0.000000,,2013-04-25 09:52:00,
2013-04-25 04:12:00,21.0,4.0,-100.00,SW,224,6.0,16.0,47,0.00,,,0.00,0.000000,,2013-04-25 10:12:00,
2013-04-25 04:22:00,21.0,4.0,-100.00,SW,224,6.0,16.0,47,0.00,,,0.00,0.000000,,2013-04-25 10:22:00,
2013-04-25 04:32:00,21.0,4.0,-100.00,SW,224,6.0,16.0,47,0.00,,,0.00,0.000000,,2013-04-25 10:32:00,
2013-04-25 04:42:00,21.0,4.0,-100.00,SW,224,6.0,16.0,47,0.00,,,0.00,0.000000,,2013-04-25 10:42:00,
2013-04-25 05:22:00,19.0,3.0,-100.00,WSW,250,3.0,11.0,49,0.00,,,0.00,0.000000,,2013-04-25 11:22:00,
2013-04-25 05:32:00,19.0,3.0,-100.00,WSW,250,3.0,11.0,49,0.00,,,0.00,0.000000,,2013-04-25 11:32:00,
2013-04-25 05:42:00,19.0,3.0,-100.00,WSW,250,3.0,11.0,49,0.00,,,0.00,0.000000,,2013-04-25 11:42:00,
2013-04-25 05:51:00,19.0,3.0,-100.00,WSW,250,3.0,11.0,49,0.00,,,0.00,0.000000,,2013-04-25 11:51:00,
2013-04-25 06:12:00,17.0,2.0,-100.00,West,271,4.0,11.0,50,0.00,,,0.00,0.000000,,2013-04-25 12:12:00,
2013-04-25 06:21:00,17.0,2.0,-100.00,West,271,4.0,11.0,50,0.00,,,0.00,0.000000,,2013-04-25 12:21:00,
2013-04-25 06:32:00,17.0,2.0,-100.00,West,271,4.0,11.0,50,0.00,,,0.00,0.000000,,2013-04-25 12:32:00,
2013-04-25 06:42:00,17.0,2.0,-100.00,West,271,4.0,11.0,50,0.00,,,0.00,0.000000,,2013-04-25 12:42:00,
2013-04-25 06:51:00,17.0,2.0,-100.00,West,271,4.0,11.0,50,0.00,,,0.00,0.000000,,2013-04-25 12:51:00,
2013-04-25 06:52:00,22.0,2.0,-100.00,SSW,210,7.0,11.0,41,0.00,,,0.00,24.000000,,2013-04-25 12:52:00,
2013-04-25 07:21:00,22.0,2.0,-100.00,SSW,210,7.0,11.0,41,0.00,,,0.00,24.000000,,2013-04-25 13:21:00,
2013-04-25 07:32:00,22.0,2.0,-100.00,SSW,210,7.0,11.0,41,0.00,,,0.00,24.000000,,2013-04-25 13:32:00,
2013-04-25 07:42:00,22.0,2.0,-100.00,SSW,210,7.0,11.0,41,0.00,,,0.00,24.000000,,2013-04-25 13:42:00,
2013-04-25 08:21:00,28.0,6.0,-100.00,SW,218,7.0,14.0,38,0.00,,,0.00,188.000000,,2013-04-25 14:21:00,
2013-04-25 08:32:00,28.0,6.0,-100.00,SW,218,7.0,14.0,38,0.00,,,0.00,188.000000,,2013-04-25 14:32:00,
2013-04-25 08:42:00,28.0,6.0,-100.00,SW,218,7.0,14.0,38,0.00,,,0.00,188.000000,,2013-04-25 14:42:00,
2013-04-25 08:51:00,28.0,6.0,-100.00,SW,218,7.0,14.0,38,0.00,,,0.00,188.000000,,2013-04-25 14:51:00,
2013-04-25 08:52:00,32.0,6.0,-100.00,SW,226,9.0,18.0,33,0.00,,,0.00,426.000000,,2013-04-25 14:52:00,
2013-04-25 09:21:00,32.0,6.0,-100.00,SW,226,9.0,18.0,33,0.00,,,0.00,426.000000,,2013-04-25 15:21:00,
2013-04-25 09:33:00,32.0,6.0,-100.00,SW,226,9.0,18.0,33,0.00,,,0.00,426.000000,,2013-04-25 15:33:00,
2013-04-25 09:42:00,32.0,6.0,-100.00,SW,226,9.0,18.0,33,0.00,,,0.00,426.000000,,2013-04-25 15:42:00,
2013-04-25 09:52:00,39.0,4.0,-100.00,WSW,251,13.0,26.0,23,0.00,,,0.00,715.000000,,2013-04-25 15:52:00,
2013-04-25 10:13:00,39.0,4.0,-100.00,WSW,251,13.0,26.0,23,0.00,,,0.00,715.000000,,2013-04-25 16:13:00,
2013-04-25 10:24:00,39.0,4.0,-100.00,WSW,251,13.0,26.0,23,0.00,,,0.00,715.000000,,2013-04-25 16:24:00,
2013-04-25 10:32:00,39.0,4.0,-100.00,WSW,251,13.0,26.0,23,0.00,,,0.00,715.000000,,2013-04-25 16:32:00,
2013-04-25 10:42:00,39.0,4.0,-100.00,WSW,251,13.0,26.0,23,0.00,,,0.00,715.000000,,2013-04-25 16:42:00,
2013-04-25 10:52:00,42.0,3.0,-100.00,WSW,248,12.0,28.0,19,0.00,,,0.00,861.000000,,2013-04-25 16:52:00,
2013-04-25 11:11:00,42.0,3.0,-100.00,WSW,248,12.0,28.0,19,0.00,,,0.00,861.000000,,2013-04-25 17:11:00,
2013-04-25 11:22:00,42.0,3.0,-100.00,WSW,248,12.0,28.0,19,0.00,,,0.00,861.000000,,2013-04-25 17:22:00,
2013-04-25 11:32:00,42.0,3.0,-100.00,WSW,248,12.0,28.0,19,0.00,,,0.00,861.000000,,2013-04-25 17:32:00,
2013-04-25 11:42:00,42.0,3.0,-100.00,WSW,248,12.0,28.0,19,0.00,,,0.00,861.000000,,2013-04-25 17:42:00,
2013-04-25 11:52:00,43.0,4.0,-100.00,WSW,254,13.0,22.0,19,0.00,,,0.00,1046.000000,,2013-04-25 17:52:00,
2013-04-25 12:11:00,43.0,4.0,-100.00,WSW,254,13.0,22.0,19,0.00,,,0.00,1046.000000,,2013-04-25 18:11:00,
2013-04-25 12:22:00,43.0,4.0,-100.00,WSW,254,13.0,22.0,19,0.00,,,0.00,1046.000000,,2013-04-25 18:22:00,
2013-04-25 12:32:00,43.0,4.0,-100.00,WSW,254,13.0,22.0,19,0.00,,,0.00,1046.000000,,2013-04-25 18:32:00,
2013-04-25 12:42:00,43.0,4.0,-100.00,WSW,254,13.0,22.0,19,0.00,,,0.00,1046.000000,,2013-04-25 18:42:00,
2013-04-25 12:52:00,48.0,5.0,-100.00,WSW,250,11.0,25.0,17,0.00,,,0.00,1147.000000,,2013-04-25 18:52:00,
2013-04-25 13:12:00,48.0,5.0,-100.00,WSW,250,11.0,25.0,17,0.00,,,0.00,1147.000000,,2013-04-25 19:12:00,
2013-04-25 13:21:00,48.0,5.0,-100.00,WSW,250,11.0,25.0,17,0.00,,,0.00,1147.000000,,2013-04-25 19:21:00,
2013-04-25 13:31:00,48.0,5.0,-100.00,WSW,250,11.0,25.0,17,0.00,,,0.00,1147.000000,,2013-04-25 19:31:00,
2013-04-25 13:42:00,48.0,5.0,-100.00,WSW,250,11.0,25.0,17,0.00,,,0.00,1147.000000,,2013-04-25 19:42:00,
2013-04-25 13:52:00,44.0,7.0,-100.00,SW,236,10.0,23.0,21,0.00,,,0.00,943.000000,,2013-04-25 19:52:00,
2013-04-25 14:22:00,44.0,7.0,-100.00,SW,236,10.0,23.0,21,0.00,,,0.00,943.000000,,2013-04-25 20:22:00,
2013-04-25 14:32:00,44.0,7.0,-100.00,SW,236,10.0,23.0,21,0.00,,,0.00,943.000000,,2013-04-25 20:32:00,
2013-04-25 14:42:00,44.0,7.0,-100.00,SW,236,10.0,23.0,21,0.00,,,0.00,943.000000,,2013-04-25 20:42:00,
2013-04-25 14:52:00,44.0,8.0,-100.00,WSW,254,14.0,22.0,22,0.00,,,0.00,614.000000,,2013-04-25 20:52:00,
2013-04-25 15:11:00,44.0,8.0,-100.00,WSW,254,14.0,22.0,22,0.00,,,0.00,614.000000,,2013-04-25 21:11:00,
2013-04-25 15:22:00,44.0,8.0,-100.00,WSW,254,14.0,22.0,22,0.00,,,0.00,614.000000,,2013-04-25 21:22:00,
2013-04-25 15:33:00,44.0,8.0,-100.00,WSW,254,14.0,22.0,22,0.00,,,0.00,614.000000,,2013-04-25 21:33:00,
2013-04-25 15:42:00,44.0,8.0,-100.00,WSW,254,14.0,22.0,22,0.00,,,0.00,614.000000,,2013-04-25 21:42:00,
2013-04-25 15:52:00,47.0,8.0,-100.00,West,263,14.0,25.0,20,0.00,,,0.00,720.000000,,2013-04-25 21:52:00,
2013-04-25 16:22:00,47.0,8.0,-100.00,West,263,14.0,25.0,20,0.00,,,0.00,720.000000,,2013-04-25 22:22:00,
2013-04-25 16:33:00,47.0,8.0,-100.00,West,263,14.0,25.0,20,0.00,,,0.00,720.000000,,2013-04-25 22:33:00,
2013-04-25 16:42:00,47.0,8.0,-100.00,West,263,14.0,25.0,20,0.00,,,0.00,720.000000,,2013-04-25 22:42:00,
2013-04-25 16:52:00,46.0,9.0,-100.00,West,279,13.0,27.0,22,0.00,,,0.00,729.000000,,2013-04-25 22:52:00,
2013-04-25 17:12:00,46.0,9.0,-100.00,West,279,13.0,27.0,22,0.00,,,0.00,729.000000,,2013-04-25 23:12:00,
2013-04-25 17:22:00,46.0,9.0,-100.00,West,279,13.0,27.0,22,0.00,,,0.00,729.000000,,2013-04-25 23:22:00,
2013-04-25 17:32:00,46.0,9.0,-100.00,West,279,13.0,27.0,22,0.00,,,0.00,729.000000,,2013-04-25 23:32:00,
2013-04-25 17:42:00,46.0,9.0,-100.00,West,279,13.0,27.0,22,0.00,,,0.00,729.000000,,2013-04-25 23:42:00,
2013-04-25 18:21:00,45.0,9.0,-100.00,West,278,11.0,23.0,23,0.00,,,0.00,527.000000,,2013-04-26 00:21:00,
2013-04-25 18:32:00,45.0,9.0,-100.00,West,278,11.0,23.0,23,0.00,,,0.00,527.000000,,2013-04-26 00:32:00,
2013-04-25 18:41:00,45.0,9.0,-100.00,West,278,11.0,23.0,23,0.00,,,0.00,527.000000,,2013-04-26 00:41:00,
2013-04-25 18:51:00,45.0,9.0,-100.00,West,278,11.0,23.0,23,0.00,,,0.00,527.000000,,2013-04-26 00:51:00,
2013-04-25 18:52:00,45.0,11.0,-100.00,West,271,9.0,20.0,25,0.00,,,0.00,303.000000,,2013-04-26 00:52:00,
2013-04-25 19:11:00,45.0,11.0,-100.00,West,271,9.0,20.0,25,0.00,,,0.00,303.000000,,2013-04-26 01:11:00,
2013-04-25 19:21:00,45.0,11.0,-100.00,West,271,9.0,20.0,25,0.00,,,0.00,303.000000,,2013-04-26 01:21:00,
2013-04-25 19:31:00,45.0,11.0,-100.00,West,271,9.0,20.0,25,0.00,,,0.00,303.000000,,2013-04-26 01:31:00,
2013-04-25 19:42:00,45.0,11.0,-100.00,West,271,9.0,20.0,25,0.00,,,0.00,303.000000,,2013-04-26 01:42:00,
2013-04-25 20:11:00,38.0,11.0,-100.00,West,276,6.0,14.0,32,0.00,,,0.00,79.000000,,2013-04-26 02:11:00,
2013-04-25 20:21:00,38.0,11.0,-100.00,West,276,6.0,14.0,32,0.00,,,0.00,79.000000,,2013-04-26 02:21:00,
2013-04-25 20:32:00,38.0,11.0,-100.00,West,276,6.0,14.0,32,0.00,,,0.00,79.000000,,2013-04-26 02:32:00,
2013-04-25 20:42:00,38.0,11.0,-100.00,West,276,6.0,14.0,32,0.00,,,0.00,79.000000,,2013-04-26 02:42:00,
2013-04-25 20:51:00,38.0,11.0,-100.00,West,276,6.0,14.0,32,0.00,,,0.00,79.000000,,2013-04-26 02:51:00,
2013-04-25 20:52:00,29.0,12.0,-100.00,North,4,0.0,7.0,48,0.00,,,0.00,2.000000,,2013-04-26 02:52:00,
2013-04-25 21:21:00,29.0,12.0,-100.00,North,4,0.0,7.0,48,0.00,,,0.00,2.000000,,2013-04-26 03:21:00,
2013-04-25 21:33:00,29.0,12.0,-100.00,North,4,0.0,7.0,48,0.00,,,0.00,2.000000,,2013-04-26 03:33:00,
2013-04-25 21:43:00,29.0,12.0,-100.00,North,4,0.0,7.0,48,0.00,,,0.00,2.000000,,2013-04-26 03:43:00,
2013-04-25 21:52:00,24.0,15.0,-100.00,WNW,294,1.0,2.0,67,0.00,,,0.00,0.000000,,2013-04-26 03:52:00,
2013-04-25 22:12:00,24.0,15.0,-100.00,WNW,294,1.0,2.0,67,0.00,,,0.00,0.000000,,2013-04-26 04:12:00,
2013-04-25 22:23:00,24.0,15.0,-100.00,WNW,294,1.0,2.0,67,0.00,,,0.00,0.000000,,2013-04-26 04:23:00,
2013-04-25 22:32:00,24.0,15.0,-100.00,WNW,294,1.0,2.0,67,0.00,,,0.00,0.000000,,2013-04-26 04:32:00,
2013-04-25 22:43:00,24.0,15.0,-100.00,WNW,294,1.0,2.0,67,0.00,,,0.00,0.000000,,2013-04-26 04:43:00,
2013-04-25 22:52:00,23.0,13.0,-100.00,North,5,0.0,3.0,64,0.00,,,0.00,0.000000,,2013-04-26 04:52:00,
2013-04-25 23:12:00,23.0,13.0,-100.00,North,5,0.0,3.0,64,0.00,,,0.00,0.000000,,2013-04-26 05:12:00,
2013-04-25 23:22:00,23.0,13.0,-100.00,North,5,0.0,3.0,64,0.00,,,0.00,0.000000,,2013-04-26 05:22:00,
2013-04-25 23:32:00,23.0,13.0,-100.00,North,5,0.0,3.0,64,0.00,,,0.00,0.000000,,2013-04-26 05:32:00,
2013-04-25 23:42:00,23.0,13.0,-100.00,North,5,0.0,3.0,64,0.00,,,0.00,0.000000,,2013-04-26 05:42:00,
2013-04-25 23:52:00,18.0,11.0,-100.00,NW,314,1.0,2.0,72,0.00,,,0.00,0.000000,,2013-04-26 05:52:00,